Meteo Giornale » Osservazioni meteo Francia » Lille

ore: 10:30 - Osservazioni Meteo Lille
Lat. 50° 34' N Lon. 3° 6' E Alt. 48 metri s.l.m.

coperto Europe/Paris

15 °C

Coperto

Temp. 24 Ore

12 °C

20 °C

Sud

13 Km/h

Dew point 13 °C

Umidità 87 %

Visibilità  10 Km

Il sole sorge alle ore 05:34

Il sole tramonta alle ore 22:06

Data e Ora Cielo e Fenomeni T °C DP °C Um. % Pres. hPa Vis. km Vento km/h
Oggi h: 10:30 coperto Coperto 15 13 87 1018 10 S 13
Oggi h: 10:00 coperto_pioggia Pioggia Debole Foschia 15 12 82 1018 5 S/SO 16.7
Oggi h: 09:30 coperto Coperto 16 12 77 1018 10 S/SO 16.7
Oggi h: 09:00 coperto Coperto 15 13 87 1018 10 S/SO 14.8
Oggi h: 08:30 coperto Coperto 15 13 87 1018 10 S/SO 11.1
Oggi h: 08:00 coperto Coperto 15 13 87 1018 10 SO 13
Oggi h: 07:30 coperto Coperto 14 13 93 1018 10 SO 13
Oggi h: 06:30 coperto Coperto 14 12 87 1018 10 S 7.4
Oggi h: 06:00 coperto Coperto 13 12 93 1019 10 S 7.4
Oggi h: 05:30 sereno Sereno 13 12 93 1019 10 N 5.5
Oggi h: 05:00 sereno Sereno 13 11 87 1019 10 N 5.5
Oggi h: 04:30 sereno Sereno 13 11 87 1019 10 N 3.7
Oggi h: 04:00 sereno Sereno 13 11 87 1019 10 N 3.7
Oggi h: 03:30 sereno Sereno 12 10 87 1020 10 N 5.5
Oggi h: 03:00 molto_nuvoloso Molto Nuvoloso 12 10 87 1020 9 N 3.7
Oggi h: 02:30 molto_nuvoloso Molto Nuvoloso 12 9 81 1020 10 N 3.7
Oggi h: 02:00 molto_nuvoloso Molto Nuvoloso 12 9 81 1020 10 N 3.7
Oggi h: 01:30 molto_nuvoloso Molto Nuvoloso 13 9 76 1020 10 SO 7.4
Oggi h: 01:00 poco_nuvoloso Poco Nuvoloso 13 9 76 1020 10 O/SO 9.3
Oggi h: 00:30 sereno Sereno 13 9 76 1021 10 S/SO 7.4
Oggi h: 00:00 sereno Sereno 13 9 76 1021 10 N 3.7
Ieri h: 23:30 sereno Sereno 14 9 71 1021 10 SO 9.3
Ieri h: 23:00 poco_nuvoloso Poco Nuvoloso 14 8 67 1021 10 O 9.3
Ieri h: 22:30 sereno Sereno 14 7 62 1021 10 N 3.7
Ieri h: 22:00 sereno Sereno 15 7 58 1020 10 N 5.5
Ieri h: 21:30 sereno Sereno 16 6 51 1020 10 O/NO 7.4
Ieri h: 21:00 sereno Sereno 18 5 42 1020 10 O/NO 9.3
Ieri h: 20:30 sereno Sereno 19 3 34 1020 10 O/NO 16.7
Ieri h: 20:00 poco_nuvoloso Poco Nuvoloso 20 11 56 1020 10 N 5.5
Ieri h: 19:30 molto_nuvoloso Molto Nuvoloso 20 13 64 1020 10 E 7.4
Ieri h: 19:00 molto_nuvoloso Molto Nuvoloso 19 11 59 1020 10 N 3.7
Ieri h: 18:30 molto_nuvoloso Molto Nuvoloso 20 12 59 1020 10 N 5.5
Ieri h: 18:00 coperto Coperto 18 12 67 1020 10 N 3.7
Ieri h: 17:30 coperto Coperto 18 11 63 1021 10 N 3.7
Ieri h: 17:00 coperto Coperto 18 12 67 1021 10 N/NO 9.3
Ieri h: 16:30 molto_nuvoloso Molto Nuvoloso 17 12 72 1021 10 NO 11.1
Ieri h: 16:00 molto_nuvoloso Molto Nuvoloso 18 11 63 1021 10 N 5.5
Ieri h: 15:30 molto_nuvoloso Molto Nuvoloso 18 12 67 1021 10 N/NO 9.3
Ieri h: 15:00 molto_nuvoloso Molto Nuvoloso 18 12 67 1021 10 N 11.1
Ieri h: 14:30 coperto Coperto 18 12 67 1021 10 NO 14.8
Ieri h: 14:00 coperto Coperto 17 12 72 1021 10 NO 14.8
Ieri h: 13:30 coperto Coperto 17 12 72 1021 10 N/NO 14.8
Ieri h: 13:00 molto_nuvoloso Molto Nuvoloso 17 12 72 1021 10 NO 13
Ieri h: 12:30 molto_nuvoloso Molto Nuvoloso 17 12 72 1021 10 NO 13
Ieri h: 12:00 coperto Coperto 16 13 82 1021 10 NO 14.8